Terminal Aerodrome Forecast
Issued by NWS Wakefield, VA

Home | Current Version | Previous Version | Text Only | Print | Product List | Glossary On
Versions: 1 2 3 4 5 6 7 8 9 10 11 12 13 14 15 16 17
000
FTUS41 KAKQ 242320
TAFORF
TAF
KORF 242320Z 2500/2524 21010KT P6SM SCT040 SCT250
     FM250800 25011KT P6SM FEW070
     FM251100 33009KT P6SM SCT080
     FM252000 04008KT P6SM SCT070=

USA.gov is the U.S. government's official web portal to all federal, state and local government web resources and services.